sensor_id;sensor_type;location;lat;lon;timestamp;P1;durP1;ratioP1;P2;durP2;ratioP2
61806;SDS011;47726;52.766;6.606;2022-12-07T00:00:52;17.27;;;13.45;;
61806;SDS011;47726;52.766;6.606;2022-12-07T00:03:19;20.25;;;16.17;;
61806;SDS011;47726;52.766;6.606;2022-12-07T00:05:44;18.48;;;15.25;;
61806;SDS011;47726;52.766;6.606;2022-12-07T00:08:10;19.02;;;15.40;;
61806;SDS011;47726;52.766;6.606;2022-12-07T00:10:35;19.05;;;13.15;;
61806;SDS011;47726;52.766;6.606;2022-12-07T00:13:01;14.65;;;11.30;;
61806;SDS011;47726;52.766;6.606;2022-12-07T00:15:27;14.38;;;10.52;;
61806;SDS011;47726;52.766;6.606;2022-12-07T00:17:53;13.95;;;7.03;;
61806;SDS011;47726;52.766;6.606;2022-12-07T00:20:18;13.23;;;6.90;;
61806;SDS011;47726;52.766;6.606;2022-12-07T00:22:44;11.82;;;5.85;;
61806;SDS011;47726;52.766;6.606;2022-12-07T00:25:10;10.75;;;4.93;;
61806;SDS011;47726;52.766;6.606;2022-12-07T00:27:35;12.20;;;4.78;;
61806;SDS011;47726;52.766;6.606;2022-12-07T00:30:01;8.27;;;3.58;;
61806;SDS011;47726;52.766;6.606;2022-12-07T00:32:26;8.45;;;3.35;;
61806;SDS011;47726;52.766;6.606;2022-12-07T00:34:52;7.75;;;3.90;;
61806;SDS011;47726;52.766;6.606;2022-12-07T00:37:18;8.98;;;3.75;;
61806;SDS011;47726;52.766;6.606;2022-12-07T00:39:43;7.70;;;3.10;;
61806;SDS011;47726;52.766;6.606;2022-12-07T00:42:11;7.03;;;3.70;;
61806;SDS011;47726;52.766;6.606;2022-12-07T00:44:36;9.93;;;3.67;;
61806;SDS011;47726;52.766;6.606;2022-12-07T00:47:02;6.78;;;3.58;;
61806;SDS011;47726;52.766;6.606;2022-12-07T00:49:28;6.57;;;4.07;;
61806;SDS011;47726;52.766;6.606;2022-12-07T00:51:53;14.23;;;4.63;;
61806;SDS011;47726;52.766;6.606;2022-12-07T00:54:19;10.35;;;4.45;;
61806;SDS011;47726;52.766;6.606;2022-12-07T00:56:44;10.00;;;4.80;;
61806;SDS011;47726;52.766;6.606;2022-12-07T00:59:11;9.52;;;4.75;;
61806;SDS011;47726;52.766;6.606;2022-12-07T01:01:40;11.20;;;4.60;;
61806;SDS011;47726;52.766;6.606;2022-12-07T01:04:05;10.63;;;5.13;;
61806;SDS011;47726;52.766;6.606;2022-12-07T01:06:31;8.95;;;5.15;;
61806;SDS011;47726;52.766;6.606;2022-12-07T01:08:57;11.10;;;5.13;;
61806;SDS011;47726;52.766;6.606;2022-12-07T01:11:24;12.70;;;5.47;;
61806;SDS011;47726;52.766;6.606;2022-12-07T01:13:52;11.10;;;5.10;;
61806;SDS011;47726;52.766;6.606;2022-12-07T01:16:20;9.32;;;4.97;;
61806;SDS011;47726;52.766;6.606;2022-12-07T01:18:48;11.80;;;5.05;;
61806;SDS011;47726;52.766;6.606;2022-12-07T01:21:16;13.38;;;5.43;;
61806;SDS011;47726;52.766;6.606;2022-12-07T01:23:45;8.60;;;4.63;;
61806;SDS011;47726;52.766;6.606;2022-12-07T01:26:12;8.52;;;5.10;;
61806;SDS011;47726;52.766;6.606;2022-12-07T01:28:40;10.50;;;5.00;;
61806;SDS011;47726;52.766;6.606;2022-12-07T01:31:07;13.70;;;5.45;;
61806;SDS011;47726;52.766;6.606;2022-12-07T01:33:36;12.32;;;5.55;;
61806;SDS011;47726;52.766;6.606;2022-12-07T01:38:30;9.63;;;4.93;;
61806;SDS011;47726;52.766;6.606;2022-12-07T01:40:56;11.27;;;5.00;;
61806;SDS011;47726;52.766;6.606;2022-12-07T01:43:22;12.05;;;4.70;;
61806;SDS011;47726;52.766;6.606;2022-12-07T01:45:50;7.72;;;4.40;;
61806;SDS011;47726;52.766;6.606;2022-12-07T01:48:17;8.95;;;4.15;;
61806;SDS011;47726;52.766;6.606;2022-12-07T01:50:47;9.48;;;4.00;;
61806;SDS011;47726;52.766;6.606;2022-12-07T01:53:15;6.85;;;3.63;;
61806;SDS011;47726;52.766;6.606;2022-12-07T01:55:43;7.70;;;3.50;;
61806;SDS011;47726;52.766;6.606;2022-12-07T01:58:11;10.60;;;3.53;;
61806;SDS011;47726;52.766;6.606;2022-12-07T02:00:39;7.80;;;3.05;;
61806;SDS011;47726;52.766;6.606;2022-12-07T02:03:07;7.90;;;3.05;;
61806;SDS011;47726;52.766;6.606;2022-12-07T02:05:40;9.10;;;2.90;;
61806;SDS011;47726;52.766;6.606;2022-12-07T02:08:07;10.38;;;2.88;;
61806;SDS011;47726;52.766;6.606;2022-12-07T02:10:34;10.73;;;3.20;;
61806;SDS011;47726;52.766;6.606;2022-12-07T02:15:30;9.98;;;2.67;;
61806;SDS011;47726;52.766;6.606;2022-12-07T02:18:09;9.18;;;2.92;;
61806;SDS011;47726;52.766;6.606;2022-12-07T02:20:42;6.75;;;2.90;;
61806;SDS011;47726;52.766;6.606;2022-12-07T02:29:24;7.80;;;3.00;;
61806;SDS011;47726;52.766;6.606;2022-12-07T02:31:55;6.53;;;2.85;;
61806;SDS011;47726;52.766;6.606;2022-12-07T02:34:26;10.07;;;3.17;;
61806;SDS011;47726;52.766;6.606;2022-12-07T02:37:08;9.27;;;2.72;;
61806;SDS011;47726;52.766;6.606;2022-12-07T02:45:55;5.65;;;2.55;;
61806;SDS011;47726;52.766;6.606;2022-12-07T02:48:24;6.40;;;2.50;;
61806;SDS011;47726;52.766;6.606;2022-12-07T02:50:52;11.75;;;2.80;;
61806;SDS011;47726;52.766;6.606;2022-12-07T02:53:38;6.25;;;2.42;;
61806;SDS011;47726;52.766;6.606;2022-12-07T03:01:40;7.45;;;2.40;;
61806;SDS011;47726;52.766;6.606;2022-12-07T03:10:33;6.25;;;2.33;;
61806;SDS011;47726;52.766;6.606;2022-12-07T03:16:24;6.55;;;2.30;;
61806;SDS011;47726;52.766;6.606;2022-12-07T03:18:28;7.35;;;2.42;;
61806;SDS011;47726;52.766;6.606;2022-12-07T03:20:58;7.70;;;2.10;;
61806;SDS011;47726;52.766;6.606;2022-12-07T03:23:27;6.30;;;2.28;;
61806;SDS011;47726;52.766;6.606;2022-12-07T03:25:55;9.98;;;2.40;;
61806;SDS011;47726;52.766;6.606;2022-12-07T03:28:25;7.47;;;2.30;;
61806;SDS011;47726;52.766;6.606;2022-12-07T03:31:00;10.02;;;2.53;;
61806;SDS011;47726;52.766;6.606;2022-12-07T03:33:38;6.70;;;2.25;;
61806;SDS011;47726;52.766;6.606;2022-12-07T03:36:21;7.75;;;2.30;;
61806;SDS011;47726;52.766;6.606;2022-12-07T03:38:57;7.97;;;2.60;;
61806;SDS011;47726;52.766;6.606;2022-12-07T03:41:43;11.30;;;2.38;;
61806;SDS011;47726;52.766;6.606;2022-12-07T03:44:09;8.23;;;2.45;;
61806;SDS011;47726;52.766;6.606;2022-12-07T03:49:10;10.38;;;2.90;;
61806;SDS011;47726;52.766;6.606;2022-12-07T03:54:39;10.00;;;2.88;;
61806;SDS011;47726;52.766;6.606;2022-12-07T03:57:21;10.13;;;3.05;;
61806;SDS011;47726;52.766;6.606;2022-12-07T03:59:49;8.25;;;2.65;;
61806;SDS011;47726;52.766;6.606;2022-12-07T04:02:16;7.15;;;2.50;;
61806;SDS011;47726;52.766;6.606;2022-12-07T04:04:42;5.72;;;2.50;;
61806;SDS011;47726;52.766;6.606;2022-12-07T04:07:08;7.75;;;2.70;;
61806;SDS011;47726;52.766;6.606;2022-12-07T04:09:34;7.78;;;2.25;;
61806;SDS011;47726;52.766;6.606;2022-12-07T04:12:00;6.65;;;2.45;;
61806;SDS011;47726;52.766;6.606;2022-12-07T04:14:25;7.00;;;2.40;;
61806;SDS011;47726;52.766;6.606;2022-12-07T04:16:52;8.43;;;2.38;;
61806;SDS011;47726;52.766;6.606;2022-12-07T04:19:28;6.53;;;2.20;;
61806;SDS011;47726;52.766;6.606;2022-12-07T04:21:56;9.85;;;2.40;;
61806;SDS011;47726;52.766;6.606;2022-12-07T04:24:23;8.95;;;2.47;;
61806;SDS011;47726;52.766;6.606;2022-12-07T04:26:50;9.02;;;2.28;;
61806;SDS011;47726;52.766;6.606;2022-12-07T04:29:16;8.55;;;2.13;;
61806;SDS011;47726;52.766;6.606;2022-12-07T04:31:42;7.65;;;2.15;;
61806;SDS011;47726;52.766;6.606;2022-12-07T04:34:09;5.18;;;2.00;;
61806;SDS011;47726;52.766;6.606;2022-12-07T04:36:35;10.40;;;2.30;;
61806;SDS011;47726;52.766;6.606;2022-12-07T04:39:02;5.80;;;2.30;;
61806;SDS011;47726;52.766;6.606;2022-12-07T04:41:29;4.15;;;1.83;;
61806;SDS011;47726;52.766;6.606;2022-12-07T04:43:55;8.13;;;2.30;;
61806;SDS011;47726;52.766;6.606;2022-12-07T04:46:26;12.50;;;2.67;;
61806;SDS011;47726;52.766;6.606;2022-12-07T04:48:53;6.57;;;2.13;;
61806;SDS011;47726;52.766;6.606;2022-12-07T04:51:24;6.47;;;2.20;;
61806;SDS011;47726;52.766;6.606;2022-12-07T04:56:18;5.05;;;2.00;;
61806;SDS011;47726;52.766;6.606;2022-12-07T04:58:44;9.80;;;2.17;;
61806;SDS011;47726;52.766;6.606;2022-12-07T05:01:11;6.57;;;2.10;;
61806;SDS011;47726;52.766;6.606;2022-12-07T05:03:37;5.35;;;2.10;;
61806;SDS011;47726;52.766;6.606;2022-12-07T05:06:03;7.72;;;2.10;;
61806;SDS011;47726;52.766;6.606;2022-12-07T05:08:30;7.05;;;2.40;;
61806;SDS011;47726;52.766;6.606;2022-12-07T05:10:56;6.05;;;2.05;;
61806;SDS011;47726;52.766;6.606;2022-12-07T05:13:22;8.85;;;2.50;;
61806;SDS011;47726;52.766;6.606;2022-12-07T05:15:48;5.97;;;2.30;;
61806;SDS011;47726;52.766;6.606;2022-12-07T05:18:14;8.23;;;2.10;;
61806;SDS011;47726;52.766;6.606;2022-12-07T05:20:40;6.65;;;2.20;;
61806;SDS011;47726;52.766;6.606;2022-12-07T05:23:06;7.88;;;2.40;;
61806;SDS011;47726;52.766;6.606;2022-12-07T05:25:31;8.15;;;2.20;;
61806;SDS011;47726;52.766;6.606;2022-12-07T05:27:57;5.03;;;2.15;;
61806;SDS011;47726;52.766;6.606;2022-12-07T05:30:23;6.50;;;2.30;;
61806;SDS011;47726;52.766;6.606;2022-12-07T05:32:50;6.03;;;2.05;;
61806;SDS011;47726;52.766;6.606;2022-12-07T05:35:16;6.03;;;2.10;;
61806;SDS011;47726;52.766;6.606;2022-12-07T05:37:42;6.68;;;2.40;;
61806;SDS011;47726;52.766;6.606;2022-12-07T05:40:08;9.75;;;2.80;;
61806;SDS011;47726;52.766;6.606;2022-12-07T05:42:34;10.68;;;2.80;;
61806;SDS011;47726;52.766;6.606;2022-12-07T05:45:00;8.63;;;2.58;;
61806;SDS011;47726;52.766;6.606;2022-12-07T05:47:26;7.90;;;2.75;;
61806;SDS011;47726;52.766;6.606;2022-12-07T05:49:51;5.65;;;2.30;;
61806;SDS011;47726;52.766;6.606;2022-12-07T05:52:17;6.22;;;2.20;;
61806;SDS011;47726;52.766;6.606;2022-12-07T05:54:43;8.30;;;2.42;;
61806;SDS011;47726;52.766;6.606;2022-12-07T05:57:08;5.10;;;2.08;;
61806;SDS011;47726;52.766;6.606;2022-12-07T05:59:34;7.43;;;2.30;;
61806;SDS011;47726;52.766;6.606;2022-12-07T06:02:01;8.48;;;2.20;;
61806;SDS011;47726;52.766;6.606;2022-12-07T06:04:30;8.02;;;2.17;;
61806;SDS011;47726;52.766;6.606;2022-12-07T06:06:58;7.05;;;2.38;;
61806;SDS011;47726;52.766;6.606;2022-12-07T06:09:24;8.25;;;2.63;;
61806;SDS011;47726;52.766;6.606;2022-12-07T06:11:51;7.45;;;2.13;;
61806;SDS011;47726;52.766;6.606;2022-12-07T06:14:35;6.70;;;2.03;;
61806;SDS011;47726;52.766;6.606;2022-12-07T06:17:01;10.07;;;2.60;;
61806;SDS011;47726;52.766;6.606;2022-12-07T06:19:27;6.82;;;2.20;;
61806;SDS011;47726;52.766;6.606;2022-12-07T06:21:53;7.63;;;2.10;;
61806;SDS011;47726;52.766;6.606;2022-12-07T06:24:18;8.73;;;2.25;;
61806;SDS011;47726;52.766;6.606;2022-12-07T06:26:44;7.82;;;2.40;;
61806;SDS011;47726;52.766;6.606;2022-12-07T06:29:11;7.05;;;2.28;;
61806;SDS011;47726;52.766;6.606;2022-12-07T06:31:37;5.53;;;2.08;;
61806;SDS011;47726;52.766;6.606;2022-12-07T06:34:08;7.25;;;2.35;;
61806;SDS011;47726;52.766;6.606;2022-12-07T06:36:35;7.60;;;2.10;;
61806;SDS011;47726;52.766;6.606;2022-12-07T06:39:01;10.75;;;2.30;;
61806;SDS011;47726;52.766;6.606;2022-12-07T06:41:27;7.28;;;2.22;;
61806;SDS011;47726;52.766;6.606;2022-12-07T06:43:53;7.03;;;2.47;;
61806;SDS011;47726;52.766;6.606;2022-12-07T06:46:19;4.82;;;2.20;;
61806;SDS011;47726;52.766;6.606;2022-12-07T06:48:45;6.70;;;2.38;;
61806;SDS011;47726;52.766;6.606;2022-12-07T06:51:10;6.57;;;2.28;;
61806;SDS011;47726;52.766;6.606;2022-12-07T06:53:36;5.53;;;2.20;;
61806;SDS011;47726;52.766;6.606;2022-12-07T06:56:02;8.48;;;2.33;;
61806;SDS011;47726;52.766;6.606;2022-12-07T06:58:29;5.95;;;2.33;;
61806;SDS011;47726;52.766;6.606;2022-12-07T07:00:55;6.25;;;2.47;;
61806;SDS011;47726;52.766;6.606;2022-12-07T07:03:21;8.20;;;2.42;;
61806;SDS011;47726;52.766;6.606;2022-12-07T07:05:46;7.63;;;2.42;;
61806;SDS011;47726;52.766;6.606;2022-12-07T07:08:12;8.45;;;2.20;;
61806;SDS011;47726;52.766;6.606;2022-12-07T07:10:39;6.93;;;2.15;;
61806;SDS011;47726;52.766;6.606;2022-12-07T07:13:05;8.20;;;2.72;;
61806;SDS011;47726;52.766;6.606;2022-12-07T07:15:31;12.82;;;2.97;;
61806;SDS011;47726;52.766;6.606;2022-12-07T07:17:57;8.68;;;2.50;;
61806;SDS011;47726;52.766;6.606;2022-12-07T07:20:23;6.43;;;2.40;;
61806;SDS011;47726;52.766;6.606;2022-12-07T07:22:49;7.50;;;2.28;;
61806;SDS011;47726;52.766;6.606;2022-12-07T07:25:15;8.75;;;2.20;;
61806;SDS011;47726;52.766;6.606;2022-12-07T07:27:41;4.88;;;2.10;;
61806;SDS011;47726;52.766;6.606;2022-12-07T07:30:07;9.25;;;2.40;;
61806;SDS011;47726;52.766;6.606;2022-12-07T07:32:33;7.22;;;2.45;;
61806;SDS011;47726;52.766;6.606;2022-12-07T07:34:59;6.72;;;2.25;;
61806;SDS011;47726;52.766;6.606;2022-12-07T07:37:25;8.27;;;2.25;;
61806;SDS011;47726;52.766;6.606;2022-12-07T07:39:51;10.07;;;2.50;;
61806;SDS011;47726;52.766;6.606;2022-12-07T07:42:17;6.10;;;2.30;;
61806;SDS011;47726;52.766;6.606;2022-12-07T07:44:42;7.35;;;2.50;;
61806;SDS011;47726;52.766;6.606;2022-12-07T07:47:08;6.45;;;2.40;;
61806;SDS011;47726;52.766;6.606;2022-12-07T07:49:34;7.10;;;2.20;;
61806;SDS011;47726;52.766;6.606;2022-12-07T07:51:59;9.55;;;2.50;;
61806;SDS011;47726;52.766;6.606;2022-12-07T07:54:25;7.07;;;2.20;;
61806;SDS011;47726;52.766;6.606;2022-12-07T07:56:52;7.43;;;2.50;;
61806;SDS011;47726;52.766;6.606;2022-12-07T07:59:18;8.63;;;2.60;;
61806;SDS011;47726;52.766;6.606;2022-12-07T08:01:43;9.52;;;2.97;;
61806;SDS011;47726;52.766;6.606;2022-12-07T08:04:09;7.25;;;2.58;;
61806;SDS011;47726;52.766;6.606;2022-12-07T08:06:35;7.68;;;2.70;;
61806;SDS011;47726;52.766;6.606;2022-12-07T08:09:01;11.63;;;2.90;;
61806;SDS011;47726;52.766;6.606;2022-12-07T08:11:27;8.43;;;2.95;;
61806;SDS011;47726;52.766;6.606;2022-12-07T08:13:53;8.82;;;2.97;;
61806;SDS011;47726;52.766;6.606;2022-12-07T08:16:18;6.57;;;2.72;;
61806;SDS011;47726;52.766;6.606;2022-12-07T08:18:44;8.52;;;3.20;;
61806;SDS011;47726;52.766;6.606;2022-12-07T08:21:13;8.63;;;3.20;;
61806;SDS011;47726;52.766;6.606;2022-12-07T08:23:40;11.68;;;3.10;;
61806;SDS011;47726;52.766;6.606;2022-12-07T08:26:08;9.57;;;3.00;;
61806;SDS011;47726;52.766;6.606;2022-12-07T08:28:35;10.10;;;3.00;;
61806;SDS011;47726;52.766;6.606;2022-12-07T08:31:06;5.07;;;2.40;;
61806;SDS011;47726;52.766;6.606;2022-12-07T08:33:33;8.23;;;2.75;;
61806;SDS011;47726;52.766;6.606;2022-12-07T08:36:04;7.88;;;2.83;;
61806;SDS011;47726;52.766;6.606;2022-12-07T08:38:31;6.13;;;2.40;;
61806;SDS011;47726;52.766;6.606;2022-12-07T08:40:59;6.40;;;2.80;;
61806;SDS011;47726;52.766;6.606;2022-12-07T08:43:24;9.32;;;2.55;;
61806;SDS011;47726;52.766;6.606;2022-12-07T08:45:53;7.68;;;2.70;;
61806;SDS011;47726;52.766;6.606;2022-12-07T08:48:36;7.03;;;2.50;;
61806;SDS011;47726;52.766;6.606;2022-12-07T08:51:11;6.20;;;2.30;;
61806;SDS011;47726;52.766;6.606;2022-12-07T08:53:37;7.40;;;2.53;;
61806;SDS011;47726;52.766;6.606;2022-12-07T08:56:04;9.05;;;2.38;;
61806;SDS011;47726;52.766;6.606;2022-12-07T08:58:32;5.03;;;2.30;;
61806;SDS011;47726;52.766;6.606;2022-12-07T09:00:58;8.57;;;2.40;;
61806;SDS011;47726;52.766;6.606;2022-12-07T09:03:24;6.68;;;2.28;;
61806;SDS011;47726;52.766;6.606;2022-12-07T09:05:50;7.53;;;2.17;;
61806;SDS011;47726;52.766;6.606;2022-12-07T09:08:17;11.02;;;2.90;;
61806;SDS011;47726;52.766;6.606;2022-12-07T09:10:43;5.32;;;2.20;;
61806;SDS011;47726;52.766;6.606;2022-12-07T09:13:08;10.70;;;2.20;;
61806;SDS011;47726;52.766;6.606;2022-12-07T09:15:34;8.93;;;2.70;;
61806;SDS011;47726;52.766;6.606;2022-12-07T09:18:00;7.97;;;2.40;;
61806;SDS011;47726;52.766;6.606;2022-12-07T09:20:25;7.15;;;2.35;;
61806;SDS011;47726;52.766;6.606;2022-12-07T09:22:51;7.70;;;2.50;;
61806;SDS011;47726;52.766;6.606;2022-12-07T09:25:16;8.98;;;2.70;;
61806;SDS011;47726;52.766;6.606;2022-12-07T09:27:42;8.45;;;2.40;;
61806;SDS011;47726;52.766;6.606;2022-12-07T09:30:08;10.82;;;2.72;;
61806;SDS011;47726;52.766;6.606;2022-12-07T09:32:33;8.18;;;2.40;;
61806;SDS011;47726;52.766;6.606;2022-12-07T09:34:59;9.32;;;2.40;;
61806;SDS011;47726;52.766;6.606;2022-12-07T09:37:25;7.50;;;2.25;;
61806;SDS011;47726;52.766;6.606;2022-12-07T09:39:50;7.15;;;2.45;;
61806;SDS011;47726;52.766;6.606;2022-12-07T09:45:21;6.63;;;2.50;;
61806;SDS011;47726;52.766;6.606;2022-12-07T09:47:56;8.02;;;2.30;;
61806;SDS011;47726;52.766;6.606;2022-12-07T09:50:23;7.00;;;2.45;;
61806;SDS011;47726;52.766;6.606;2022-12-07T09:52:51;7.60;;;2.22;;
61806;SDS011;47726;52.766;6.606;2022-12-07T09:55:24;7.80;;;2.45;;
61806;SDS011;47726;52.766;6.606;2022-12-07T09:57:52;9.60;;;2.50;;
61806;SDS011;47726;52.766;6.606;2022-12-07T10:00:19;9.85;;;2.58;;
61806;SDS011;47726;52.766;6.606;2022-12-07T10:05:16;8.57;;;2.47;;
61806;SDS011;47726;52.766;6.606;2022-12-07T10:07:48;7.28;;;2.67;;
61806;SDS011;47726;52.766;6.606;2022-12-07T10:10:18;7.57;;;2.50;;
61806;SDS011;47726;52.766;6.606;2022-12-07T10:13:00;9.07;;;2.78;;
61806;SDS011;47726;52.766;6.606;2022-12-07T10:15:41;11.50;;;2.60;;
61806;SDS011;47726;52.766;6.606;2022-12-07T10:18:28;8.90;;;2.88;;
61806;SDS011;47726;52.766;6.606;2022-12-07T10:21:09;11.27;;;3.17;;
61806;SDS011;47726;52.766;6.606;2022-12-07T10:23:38;11.60;;;3.40;;
61806;SDS011;47726;52.766;6.606;2022-12-07T10:29:01;7.60;;;2.92;;
61806;SDS011;47726;52.766;6.606;2022-12-07T10:31:38;7.32;;;2.80;;
61806;SDS011;47726;52.766;6.606;2022-12-07T10:36:52;12.18;;;3.50;;
61806;SDS011;47726;52.766;6.606;2022-12-07T10:39:22;8.43;;;2.95;;
61806;SDS011;47726;52.766;6.606;2022-12-07T10:44:32;8.57;;;3.30;;
61806;SDS011;47726;52.766;6.606;2022-12-07T10:47:11;11.85;;;3.45;;
61806;SDS011;47726;52.766;6.606;2022-12-07T10:58:06;13.82;;;3.33;;
61806;SDS011;47726;52.766;6.606;2022-12-07T11:11:45;10.27;;;2.90;;
61806;SDS011;47726;52.766;6.606;2022-12-07T11:16:57;7.57;;;2.25;;
61806;SDS011;47726;52.766;6.606;2022-12-07T11:22:23;8.63;;;2.50;;
61806;SDS011;47726;52.766;6.606;2022-12-07T11:38:14;10.35;;;3.05;;
61806;SDS011;47726;52.766;6.606;2022-12-07T11:40:43;7.72;;;2.67;;
61806;SDS011;47726;52.766;6.606;2022-12-07T11:46:12;9.52;;;2.65;;
61806;SDS011;47726;52.766;6.606;2022-12-07T11:48:41;6.18;;;2.22;;
61806;SDS011;47726;52.766;6.606;2022-12-07T11:51:10;5.15;;;2.10;;
61806;SDS011;47726;52.766;6.606;2022-12-07T11:54:40;8.07;;;2.30;;
61806;SDS011;47726;52.766;6.606;2022-12-07T11:56:39;9.10;;;2.55;;
61806;SDS011;47726;52.766;6.606;2022-12-07T12:04:58;8.30;;;2.43;;
61806;SDS011;47726;52.766;6.606;2022-12-07T12:07:37;12.20;;;2.70;;
61806;SDS011;47726;52.766;6.606;2022-12-07T12:10:05;8.93;;;2.60;;
61806;SDS011;47726;52.766;6.606;2022-12-07T12:21:06;9.85;;;2.35;;
61806;SDS011;47726;52.766;6.606;2022-12-07T12:26:14;5.78;;;2.17;;
61806;SDS011;47726;52.766;6.606;2022-12-07T12:28:56;9.02;;;2.47;;
61806;SDS011;47726;52.766;6.606;2022-12-07T12:36:22;9.98;;;2.53;;
61806;SDS011;47726;52.766;6.606;2022-12-07T12:46:54;7.55;;;2.65;;
61806;SDS011;47726;52.766;6.606;2022-12-07T12:51:47;8.98;;;2.40;;
61806;SDS011;47726;52.766;6.606;2022-12-07T12:59:36;9.23;;;2.60;;
61806;SDS011;47726;52.766;6.606;2022-12-07T13:02:24;11.48;;;2.80;;
61806;SDS011;47726;52.766;6.606;2022-12-07T13:04:55;9.90;;;2.58;;
61806;SDS011;47726;52.766;6.606;2022-12-07T13:12:58;7.50;;;2.30;;
61806;SDS011;47726;52.766;6.606;2022-12-07T13:23:32;8.70;;;2.10;;
61806;SDS011;47726;52.766;6.606;2022-12-07T13:28:52;7.63;;;1.92;;
61806;SDS011;47726;52.766;6.606;2022-12-07T13:31:46;4.68;;;1.83;;
61806;SDS011;47726;52.766;6.606;2022-12-07T13:36:59;5.45;;;2.00;;
61806;SDS011;47726;52.766;6.606;2022-12-07T13:42:27;6.28;;;2.30;;
61806;SDS011;47726;52.766;6.606;2022-12-07T13:44:56;4.78;;;2.17;;
61806;SDS011;47726;52.766;6.606;2022-12-07T13:49:53;4.18;;;2.30;;
61806;SDS011;47726;52.766;6.606;2022-12-07T13:57:24;7.20;;;2.15;;
61806;SDS011;47726;52.766;6.606;2022-12-07T13:59:51;4.35;;;2.10;;
61806;SDS011;47726;52.766;6.606;2022-12-07T14:02:29;7.13;;;1.90;;
61806;SDS011;47726;52.766;6.606;2022-12-07T14:05:15;5.00;;;1.70;;
61806;SDS011;47726;52.766;6.606;2022-12-07T14:10:31;4.32;;;1.70;;
61806;SDS011;47726;52.766;6.606;2022-12-07T14:12:59;5.57;;;1.70;;
61806;SDS011;47726;52.766;6.606;2022-12-07T14:15:30;4.78;;;1.95;;
61806;SDS011;47726;52.766;6.606;2022-12-07T14:18:00;6.10;;;1.73;;
61806;SDS011;47726;52.766;6.606;2022-12-07T14:20:39;6.32;;;2.05;;
61806;SDS011;47726;52.766;6.606;2022-12-07T14:23:21;5.10;;;2.00;;
61806;SDS011;47726;52.766;6.606;2022-12-07T14:25:50;6.78;;;2.00;;
61806;SDS011;47726;52.766;6.606;2022-12-07T14:28:29;5.93;;;2.10;;
61806;SDS011;47726;52.766;6.606;2022-12-07T14:30:56;7.60;;;2.20;;
61806;SDS011;47726;52.766;6.606;2022-12-07T14:33:22;9.23;;;2.67;;
61806;SDS011;47726;52.766;6.606;2022-12-07T14:35:49;3.80;;;2.30;;
61806;SDS011;47726;52.766;6.606;2022-12-07T14:38:15;6.90;;;3.05;;
61806;SDS011;47726;52.766;6.606;2022-12-07T14:40:43;6.20;;;2.80;;
61806;SDS011;47726;52.766;6.606;2022-12-07T14:43:10;6.97;;;2.60;;
61806;SDS011;47726;52.766;6.606;2022-12-07T14:45:41;9.80;;;3.67;;
61806;SDS011;47726;52.766;6.606;2022-12-07T14:48:07;11.27;;;4.63;;
61806;SDS011;47726;52.766;6.606;2022-12-07T14:50:37;9.63;;;4.00;;
61806;SDS011;47726;52.766;6.606;2022-12-07T14:53:16;11.32;;;4.10;;
61806;SDS011;47726;52.766;6.606;2022-12-07T14:55:44;9.60;;;3.50;;
61806;SDS011;47726;52.766;6.606;2022-12-07T14:58:16;7.00;;;2.95;;
61806;SDS011;47726;52.766;6.606;2022-12-07T15:00:43;8.75;;;3.22;;
61806;SDS011;47726;52.766;6.606;2022-12-07T15:03:09;6.43;;;2.95;;
61806;SDS011;47726;52.766;6.606;2022-12-07T15:05:35;9.57;;;3.25;;
61806;SDS011;47726;52.766;6.606;2022-12-07T15:08:02;8.40;;;3.20;;
61806;SDS011;47726;52.766;6.606;2022-12-07T15:10:30;8.45;;;2.95;;
61806;SDS011;47726;52.766;6.606;2022-12-07T15:12:58;8.40;;;3.00;;
61806;SDS011;47726;52.766;6.606;2022-12-07T15:15:44;8.73;;;2.92;;
61806;SDS011;47726;52.766;6.606;2022-12-07T15:18:10;6.60;;;2.67;;
61806;SDS011;47726;52.766;6.606;2022-12-07T15:20:35;6.05;;;2.75;;
61806;SDS011;47726;52.766;6.606;2022-12-07T15:23:01;6.93;;;2.50;;
61806;SDS011;47726;52.766;6.606;2022-12-07T15:25:26;6.07;;;2.70;;
61806;SDS011;47726;52.766;6.606;2022-12-07T15:27:52;7.93;;;2.90;;
61806;SDS011;47726;52.766;6.606;2022-12-07T15:30:18;7.63;;;3.20;;
61806;SDS011;47726;52.766;6.606;2022-12-07T15:32:43;6.45;;;2.78;;
61806;SDS011;47726;52.766;6.606;2022-12-07T15:35:09;8.07;;;2.70;;
61806;SDS011;47726;52.766;6.606;2022-12-07T15:37:35;5.47;;;2.90;;
61806;SDS011;47726;52.766;6.606;2022-12-07T15:40:00;6.90;;;3.03;;
61806;SDS011;47726;52.766;6.606;2022-12-07T15:42:26;9.75;;;3.35;;
61806;SDS011;47726;52.766;6.606;2022-12-07T15:44:52;9.63;;;2.80;;
61806;SDS011;47726;52.766;6.606;2022-12-07T15:47:30;10.10;;;3.03;;
61806;SDS011;47726;52.766;6.606;2022-12-07T15:49:56;8.02;;;3.25;;
61806;SDS011;47726;52.766;6.606;2022-12-07T15:52:22;6.78;;;2.55;;
61806;SDS011;47726;52.766;6.606;2022-12-07T15:54:48;8.30;;;3.03;;
61806;SDS011;47726;52.766;6.606;2022-12-07T15:57:14;8.30;;;2.90;;
61806;SDS011;47726;52.766;6.606;2022-12-07T15:59:39;5.43;;;2.80;;
61806;SDS011;47726;52.766;6.606;2022-12-07T16:02:05;8.43;;;2.75;;
61806;SDS011;47726;52.766;6.606;2022-12-07T16:04:31;8.15;;;2.60;;
61806;SDS011;47726;52.766;6.606;2022-12-07T16:06:56;6.07;;;2.80;;
61806;SDS011;47726;52.766;6.606;2022-12-07T16:09:22;5.50;;;3.17;;
61806;SDS011;47726;52.766;6.606;2022-12-07T16:11:48;5.40;;;2.83;;
61806;SDS011;47726;52.766;6.606;2022-12-07T16:14:15;8.43;;;2.90;;
61806;SDS011;47726;52.766;6.606;2022-12-07T16:16:40;5.97;;;2.72;;
61806;SDS011;47726;52.766;6.606;2022-12-07T16:19:06;5.97;;;3.17;;
61806;SDS011;47726;52.766;6.606;2022-12-07T16:21:33;6.47;;;3.00;;
61806;SDS011;47726;52.766;6.606;2022-12-07T16:24:00;6.88;;;2.88;;
61806;SDS011;47726;52.766;6.606;2022-12-07T16:26:26;5.80;;;2.92;;
61806;SDS011;47726;52.766;6.606;2022-12-07T16:28:52;6.47;;;3.28;;
61806;SDS011;47726;52.766;6.606;2022-12-07T16:31:20;4.97;;;2.80;;
61806;SDS011;47726;52.766;6.606;2022-12-07T16:33:48;7.10;;;3.00;;
61806;SDS011;47726;52.766;6.606;2022-12-07T16:36:15;6.03;;;2.90;;
61806;SDS011;47726;52.766;6.606;2022-12-07T16:38:41;5.93;;;3.05;;
61806;SDS011;47726;52.766;6.606;2022-12-07T16:41:07;6.53;;;3.20;;
61806;SDS011;47726;52.766;6.606;2022-12-07T16:43:34;6.82;;;3.20;;
61806;SDS011;47726;52.766;6.606;2022-12-07T16:46:00;6.45;;;2.97;;
61806;SDS011;47726;52.766;6.606;2022-12-07T16:48:27;5.32;;;2.63;;
61806;SDS011;47726;52.766;6.606;2022-12-07T16:50:52;5.25;;;2.60;;
61806;SDS011;47726;52.766;6.606;2022-12-07T16:53:21;4.47;;;2.20;;
61806;SDS011;47726;52.766;6.606;2022-12-07T16:55:49;5.50;;;2.70;;
61806;SDS011;47726;52.766;6.606;2022-12-07T16:58:15;5.07;;;2.80;;
61806;SDS011;47726;52.766;6.606;2022-12-07T17:00:42;5.35;;;2.92;;
61806;SDS011;47726;52.766;6.606;2022-12-07T17:03:09;4.25;;;2.70;;
61806;SDS011;47726;52.766;6.606;2022-12-07T17:05:39;4.65;;;2.55;;
61806;SDS011;47726;52.766;6.606;2022-12-07T17:08:05;5.57;;;2.22;;
61806;SDS011;47726;52.766;6.606;2022-12-07T17:10:33;5.32;;;2.40;;
61806;SDS011;47726;52.766;6.606;2022-12-07T17:13:00;4.20;;;2.30;;
61806;SDS011;47726;52.766;6.606;2022-12-07T17:15:27;4.00;;;2.40;;
61806;SDS011;47726;52.766;6.606;2022-12-07T17:17:57;5.32;;;2.60;;
61806;SDS011;47726;52.766;6.606;2022-12-07T17:20:24;4.55;;;2.47;;
61806;SDS011;47726;52.766;6.606;2022-12-07T17:22:51;3.97;;;2.50;;
61806;SDS011;47726;52.766;6.606;2022-12-07T17:25:18;4.97;;;2.45;;
61806;SDS011;47726;52.766;6.606;2022-12-07T17:27:44;3.42;;;2.40;;
61806;SDS011;47726;52.766;6.606;2022-12-07T17:30:11;4.65;;;2.60;;
61806;SDS011;47726;52.766;6.606;2022-12-07T17:32:38;5.05;;;2.55;;
61806;SDS011;47726;52.766;6.606;2022-12-07T17:35:04;4.50;;;2.47;;
61806;SDS011;47726;52.766;6.606;2022-12-07T17:37:30;6.30;;;2.60;;